Time;durP1;ratioP1;P1;durP2;ratioP2;P2;SDS_P1;SDS_P2;PMS_P1;PMS_P2;Temp;Humidity;BMP_temperature;BMP_pressure;BME280_temperature;BME280_humidity;BME280_pressure;Samples;Min_cycle;Max_cycle;Signal;HPM_P1;HPM_P2
2022/07/03 00:02:00;;;;;;;5.95;3.80;;;;;;;14.23;95.72;100630.89;1811843;79;21032;-71
2022/07/03 00:04:26;;;;;;;8.23;4.08;;;;;;;14.19;96.76;100629.30;1812461;79;21104;-71
2022/07/03 00:06:54;;;;;;;8.28;4.40;;;;;;;14.19;96.19;100616.91;1812325;79;21545;-71
2022/07/03 00:09:21;;;;;;;6.75;4.58;;;;;;;14.16;94.54;100610.90;1812768;79;21040;-72
2022/07/03 00:11:48;;;;;;;7.90;4.00;;;;;;;14.13;94.22;100616.34;1812444;79;21070;-71
2022/07/03 00:14:15;;;;;;;7.80;4.20;;;;;;;14.11;96.47;100620.37;1812679;79;21620;-72
2022/07/03 00:16:42;;;;;;;13.10;4.37;;;;;;;14.09;97.54;100616.08;1812404;79;21074;-72
2022/07/03 00:19:09;;;;;;;10.75;4.10;;;;;;;14.08;96.17;100610.36;1812659;79;21501;-71
2022/07/03 00:21:47;;;;;;;7.08;3.80;;;;;;;14.04;94.41;100605.21;1812329;79;21580;-71
2022/07/03 00:24:19;;;;;;;11.75;4.08;;;;;;;14.00;94.35;100599.64;1812348;79;21087;-71
2022/07/03 00:26:47;;;;;;;10.48;3.92;;;;;;;13.96;94.55;100603.34;1815969;78;21010;-71
2022/07/03 00:29:13;;;;;;;7.55;3.35;;;;;;;13.92;94.52;100596.48;1788895;78;21112;-71
2022/07/03 00:31:40;;;;;;;9.60;4.12;;;;;;;13.89;94.39;100596.59;1818280;78;20990;-71
2022/07/03 00:34:08;;;;;;;8.43;4.20;;;;;;;13.87;94.82;100595.80;1818277;78;21088;-71
2022/07/03 00:36:37;;;;;;;8.70;3.55;;;;;;;13.83;94.61;100588.48;1818387;78;21129;-71
2022/07/03 00:39:03;;;;;;;9.60;3.72;;;;;;;13.80;94.09;100590.38;1818333;78;21037;-72
2022/07/03 00:41:34;;;;;;;8.53;3.65;;;;;;;13.79;93.95;100592.64;1818268;78;21056;-71
2022/07/03 00:44:01;;;;;;;7.85;3.85;;;;;;;13.75;93.54;100579.13;1818323;78;21036;-71
2022/07/03 00:46:28;;;;;;;11.83;4.10;;;;;;;13.74;94.05;100582.25;1818290;78;21588;-70
2022/07/03 00:48:56;;;;;;;8.08;3.40;;;;;;;13.71;94.40;100580.19;1818471;78;21202;-72
2022/07/03 00:51:27;;;;;;;7.67;3.52;;;;;;;13.68;95.15;100575.89;1818146;78;21096;-70
2022/07/03 00:53:57;;;;;;;7.00;3.67;;;;;;;13.70;96.66;100578.48;1797543;78;21256;-70
2022/07/03 00:56:29;;;;;;;9.38;3.92;;;;;;;13.70;97.36;100574.04;1785863;80;21356;-71
2022/07/03 00:58:59;;;;;;;8.43;4.47;;;;;;;13.70;97.51;100581.12;1786361;80;21064;-71
2022/07/03 01:01:32;;;;;;;9.83;4.40;;;;;;;13.68;97.55;100574.56;1785961;80;21225;-70
2022/07/03 01:04:19;;;;;;;10.55;4.12;;;;;;;13.67;97.01;100575.97;1786255;80;21093;-71
2022/07/03 01:06:53;;;;;;;14.78;4.33;;;;;;;13.67;97.01;100572.01;1786155;80;21015;-71
2022/07/03 01:09:49;;;;;;;8.75;3.87;;;;;;;13.64;97.20;100575.17;1785948;80;21163;-71
2022/07/03 01:12:25;;;;;;;12.70;4.50;;;;;;;13.64;97.66;100567.23;1786378;80;21046;-72
2022/07/03 01:15:16;;;;;;;11.60;3.85;;;;;;;13.66;98.02;100571.12;1784332;80;21072;-71
2022/07/03 01:17:48;;;;;;;5.12;3.37;;;;;;;13.66;99.02;100573.77;1781423;80;21035;-70
2022/07/03 01:20:14;;;;;;;7.20;3.62;;;;;;;13.67;99.12;100573.33;1786092;80;20999;-72
2022/07/03 01:22:46;;;;;;;6.40;3.55;;;;;;;13.62;99.09;100570.41;1786074;80;21534;-70
2022/07/03 01:25:26;;;;;;;7.97;3.52;;;;;;;13.61;100.00;100574.44;1786488;80;21082;-71
2022/07/03 01:28:07;;;;;;;7.92;3.47;;;;;;;13.61;97.04;100575.28;1789136;80;21211;-71
2022/07/03 01:30:39;;;;;;;9.63;3.85;;;;;;;13.61;97.53;100575.28;1789066;80;20999;-70
2022/07/03 01:33:09;;;;;;;8.68;3.62;;;;;;;13.59;97.73;100577.13;1787824;80;21554;-69
2022/07/03 01:35:41;;;;;;;8.40;3.85;;;;;;;13.55;95.44;100575.56;1789378;80;21034;-70
2022/07/03 01:38:12;;;;;;;5.85;3.52;;;;;;;13.53;95.58;100572.13;1788732;80;21038;-72
2022/07/03 01:40:42;;;;;;;6.85;4.05;;;;;;;13.52;95.92;100583.61;1789280;80;21223;-71
2022/07/03 01:43:11;;;;;;;8.43;3.98;;;;;;;13.51;95.70;100578.41;1789249;80;21034;-72
2022/07/03 01:45:43;;;;;;;8.58;3.70;;;;;;;13.48;96.83;100571.90;1789447;80;21408;-70
2022/07/03 01:48:11;;;;;;;6.55;3.47;;;;;;;13.48;95.22;100574.11;1789212;80;21551;-70
2022/07/03 01:50:38;;;;;;;7.65;3.67;;;;;;;13.46;94.75;100575.95;1789385;80;21101;-70
2022/07/03 01:53:08;;;;;;;6.97;3.22;;;;;;;13.40;95.46;100579.70;1799287;78;21120;-71
2022/07/03 01:55:35;;;;;;;7.70;3.53;;;;;;;13.34;95.79;100575.12;1821844;78;20986;-70
2022/07/03 01:58:02;;;;;;;8.90;3.83;;;;;;;13.31;96.43;100576.58;1821989;78;20989;-70
2022/07/03 02:00:29;;;;;;;10.80;4.08;;;;;;;13.29;96.48;100567.84;1821528;78;21309;-71
2022/07/03 02:03:00;;;;;;;9.30;4.17;;;;;;;13.27;96.56;100565.22;1821949;78;21025;-70
2022/07/03 02:05:38;;;;;;;7.08;3.72;;;;;;;13.26;97.13;100573.23;1812138;78;21934;-71
2022/07/03 02:08:46;;;;;;;8.30;3.80;;;;;;;13.26;97.32;100567.95;1821586;78;21481;-71
2022/07/03 02:11:19;;;;;;;8.23;3.92;;;;;;;13.27;98.04;100568.33;1821212;78;21052;-71
2022/07/03 02:14:14;;;;;;;6.37;3.60;;;;;;;13.28;98.98;100572.28;1821574;78;21017;-70
2022/07/03 02:16:47;;;;;;;8.20;3.80;;;;;;;13.29;99.15;100573.14;1821405;78;21044;-70
2022/07/03 02:19:15;;;;;;;7.58;3.95;;;;;;;13.35;99.32;100572.89;1821506;78;21039;-72
2022/07/03 02:21:50;;;;;;;7.78;4.03;;;;;;;13.39;99.76;100574.49;1821289;78;21056;-72
2022/07/03 02:24:27;;;;;;;9.10;4.20;;;;;;;13.41;99.27;100573.94;1821659;78;21126;-71
2022/07/03 02:27:00;;;;;;;7.62;3.95;;;;;;;13.44;99.58;100569.86;1805678;78;21108;-71
2022/07/03 02:29:35;;;;;;;5.05;3.60;;;;;;;13.49;99.51;100572.31;1782885;80;21975;-69
2022/07/03 02:32:06;;;;;;;12.28;4.42;;;;;;;13.52;99.38;100567.73;1783504;80;21139;-70
2022/07/03 02:34:34;;;;;;;8.83;4.37;;;;;;;13.55;99.29;100564.98;1783288;80;21060;-70
2022/07/03 02:37:12;;;;;;;9.10;4.20;;;;;;;13.57;99.13;100568.42;1783443;80;21029;-70
2022/07/03 02:39:46;;;;;;;11.38;4.03;;;;;;;13.60;99.22;100568.28;1783693;80;21057;-70
2022/07/03 02:42:32;;;;;;;9.43;4.40;;;;;;;13.72;99.97;100566.05;1783341;80;21056;-70
2022/07/03 02:45:02;;;;;;;6.65;4.20;;;;;;;13.80;99.56;100562.14;1780052;80;21144;-70
2022/07/03 02:47:55;;;;;;;6.10;3.92;;;;;;;13.89;98.99;100563.50;1783169;80;21060;-70
2022/07/03 02:50:24;;;;;;;10.25;4.17;;;;;;;13.98;99.76;100569.72;1783193;80;21364;-72
2022/07/03 02:52:56;;;;;;;10.68;4.00;;;;;;;14.09;99.72;100563.96;1776800;80;21069;-70
2022/07/03 02:55:46;;;;;;;9.45;4.35;;;;;;;14.21;99.14;100564.72;1716396;83;21036;-70
2022/07/03 02:58:42;;;;;;;6.45;3.40;;;;;;;14.30;98.71;100562.13;1689207;84;21846;-71
2022/07/03 03:01:35;;;;;;;9.68;3.85;;;;;;;14.44;98.65;100562.34;1716667;83;21014;-71
2022/07/03 03:04:29;;;;;;;9.48;4.10;;;;;;;14.62;96.83;100569.09;1689289;84;21030;-70
2022/07/03 03:07:06;;;;;;;6.62;3.90;;;;;;;14.81;96.09;100567.28;1716619;83;21081;-71
2022/07/03 03:09:43;;;;;;;5.22;3.37;;;;;;;15.00;94.75;100557.11;1689383;84;21097;-71
2022/07/03 03:12:12;;;;;;;9.55;3.98;;;;;;;15.20;94.23;100563.63;1716464;83;21890;-70
2022/07/03 03:14:43;;;;;;;6.33;3.95;;;;;;;15.41;91.54;100555.54;1689203;84;21569;-70
2022/07/03 03:17:24;;;;;;;10.55;4.12;;;;;;;15.63;91.80;100558.83;1716323;83;21087;-70
2022/07/03 03:19:54;;;;;;;12.60;4.35;;;;;;;15.85;87.27;100559.07;1688604;84;21069;-70
2022/07/03 03:22:47;;;;;;;9.33;3.58;;;;;;;16.08;86.35;100559.19;1716789;83;21510;-71
2022/07/03 03:25:15;;;;;;;13.22;4.05;;;;;;;16.28;86.69;100557.66;1689198;84;21245;-73
2022/07/03 03:27:43;;;;;;;9.35;4.55;;;;;;;16.50;82.72;100565.34;1724211;82;21036;-71
2022/07/03 03:30:11;;;;;;;6.67;4.28;;;;;;;16.71;81.78;100563.77;1733752;82;21111;-71
2022/07/03 03:32:38;;;;;;;12.20;4.80;;;;;;;16.87;82.29;100554.02;1733644;82;21083;-71
2022/07/03 03:35:07;;;;;;;9.80;4.80;;;;;;;17.06;79.85;100557.81;1733711;82;21103;-71
2022/07/03 03:37:33;;;;;;;10.40;4.42;;;;;;;17.24;79.19;100557.23;1734137;82;21191;-71
2022/07/03 03:40:04;;;;;;;11.93;4.58;;;;;;;17.42;78.20;100560.62;1733751;82;21048;-71
2022/07/03 03:42:31;;;;;;;9.55;4.22;;;;;;;17.61;76.24;100555.06;1733467;82;21068;-70
2022/07/03 03:44:58;;;;;;;9.45;4.78;;;;;;;17.79;75.91;100558.44;1733667;82;21571;-72
2022/07/03 03:47:24;;;;;;;13.50;5.65;;;;;;;17.95;73.12;100555.73;1733654;82;21691;-70
2022/07/03 03:49:51;;;;;;;16.20;4.90;;;;;;;18.12;72.06;100549.36;1734098;82;21112;-71
2022/07/03 03:52:18;;;;;;;13.30;4.45;;;;;;;18.29;72.10;100550.97;1733912;82;21000;-72
2022/07/03 03:54:45;;;;;;;10.32;4.47;;;;;;;18.44;69.20;100553.53;1721530;82;21557;-71
2022/07/03 03:57:23;;;;;;;7.47;4.53;;;;;;;18.62;70.45;100556.00;1746796;82;21072;-70
2022/07/03 03:59:49;;;;;;;9.20;4.03;;;;;;;18.78;68.02;100555.91;1747230;82;21615;-70
2022/07/03 04:02:16;;;;;;;20.60;4.40;;;;;;;18.99;66.87;100559.84;1746734;82;21244;-71
2022/07/03 04:04:43;;;;;;;7.95;4.08;;;;;;;19.25;68.01;100558.59;1747046;82;21040;-72
2022/07/03 04:07:10;;;;;;;8.30;4.30;;;;;;;19.50;62.25;100561.82;1746593;82;21033;-70
2022/07/03 04:09:38;;;;;;;6.50;3.60;;;;;;;19.72;63.69;100561.27;1746731;82;21312;-73
2022/07/03 04:12:09;;;;;;;11.30;4.17;;;;;;;19.96;62.83;100561.38;1746611;82;21049;-69
2022/07/03 04:14:35;;;;;;;8.05;3.60;;;;;;;20.17;59.56;100553.67;1746782;82;21281;-71
2022/07/03 04:17:02;;;;;;;8.25;3.50;;;;;;;20.27;60.73;100554.74;1747465;80;21081;-67
2022/07/03 04:19:31;;;;;;;6.45;3.45;;;;;;;20.45;59.39;100558.39;1746776;82;21100;-68
2022/07/03 04:21:57;;;;;;;4.35;2.90;;;;;;;20.65;58.29;100557.84;1771634;80;21042;-67
2022/07/03 04:24:24;;;;;;;7.50;3.52;;;;;;;20.81;58.96;100550.90;1764764;81;21066;-68
2022/07/03 04:26:51;;;;;;;4.53;2.83;;;;;;;21.00;56.91;100548.20;1752717;81;21130;-68
2022/07/03 04:29:17;;;;;;;11.43;3.10;;;;;;;21.21;55.99;100545.75;1737252;82;21113;-67
2022/07/03 04:31:44;;;;;;;4.37;2.90;;;;;;;21.40;55.52;100544.78;1741086;82;21481;-68
2022/07/03 04:34:12;;;;;;;6.95;2.85;;;;;;;21.64;54.34;100534.48;1737393;82;21074;-68
2022/07/03 04:36:38;;;;;;;5.67;2.52;;;;;;;21.88;54.40;100536.63;1741225;82;21029;-68
2022/07/03 04:39:05;;;;;;;3.58;2.37;;;;;;;22.16;51.90;100535.80;1737397;82;21496;-67
2022/07/03 04:41:32;;;;;;;8.18;2.45;;;;;;;22.40;51.14;100542.39;1740844;82;21073;-68
2022/07/03 04:43:59;;;;;;;4.87;2.45;;;;;;;22.66;51.03;100531.38;1737074;82;21097;-67
2022/07/03 04:46:25;;;;;;;6.45;2.47;;;;;;;22.91;47.70;100525.70;1740901;82;21076;-67
2022/07/03 04:48:56;;;;;;;4.33;2.60;;;;;;;23.03;49.47;100523.39;1737427;82;21050;-67
2022/07/03 04:51:20;;;;;;;7.62;3.00;;;;;;;23.18;48.00;100527.96;1736214;82;21097;-67
2022/07/03 04:53:47;;;;;;;5.25;2.92;;;;;;;23.33;47.25;100524.95;1739045;82;21216;-69
2022/07/03 04:56:13;;;;;;;6.78;2.95;;;;;;;23.49;48.67;100520.02;1730067;82;21609;-69
2022/07/03 04:58:40;;;;;;;5.75;2.58;;;;;;;23.63;45.39;100519.68;1730741;82;21053;-67
2022/07/03 05:01:07;;;;;;;5.17;2.65;;;;;;;23.77;46.56;100517.69;1730349;82;21092;-68
2022/07/03 05:03:34;;;;;;;4.70;2.22;;;;;;;23.95;45.28;100517.89;1730523;82;21553;-68
2022/07/03 05:06:03;;;;;;;5.08;2.30;;;;;;;24.14;44.27;100521.20;1730242;82;21141;-68
2022/07/03 05:08:29;;;;;;;3.83;2.40;;;;;;;24.28;44.54;100512.75;1730375;82;21053;-67
2022/07/03 05:10:56;;;;;;;5.95;2.42;;;;;;;24.48;42.17;100510.52;1730588;82;21029;-69
2022/07/03 05:13:22;;;;;;;6.80;2.37;;;;;;;24.68;42.24;100510.55;1740218;81;21546;-69
2022/07/03 05:15:50;;;;;;;5.97;2.55;;;;;;;24.73;43.14;100508.28;1758711;80;21194;-69
2022/07/03 05:18:16;;;;;;;6.22;2.35;;;;;;;24.86;41.81;100504.84;1713713;83;21020;-68
2022/07/03 05:20:44;;;;;;;5.08;2.60;;;;;;;25.13;41.46;100501.95;1712333;83;21049;-67
2022/07/03 05:23:12;;;;;;;3.92;2.50;;;;;;;25.39;40.94;100504.10;1717093;83;21041;-69
2022/07/03 05:25:38;;;;;;;6.78;2.60;;;;;;;25.66;41.49;100504.20;1765051;80;21076;-68
2022/07/03 05:28:05;;;;;;;4.87;2.37;;;;;;;26.01;40.30;100504.05;1775903;80;21779;-70
2022/07/03 05:30:32;;;;;;;3.67;2.47;;;;;;;26.34;39.90;100505.82;1701902;84;21053;-69
2022/07/03 05:32:58;;;;;;;5.17;2.20;;;;;;;26.65;39.62;100506.91;1764636;80;20990;-69
2022/07/03 05:35:25;;;;;;;6.85;2.77;;;;;;;27.04;38.06;100505.28;1771546;80;21045;-69
2022/07/03 05:37:53;;;;;;;9.15;2.35;;;;;;;27.30;37.17;100502.67;1764628;81;21099;-70
2022/07/03 05:40:20;;;;;;;3.72;2.33;;;;;;;27.43;36.98;100494.16;1764212;81;21872;-68
2022/07/03 05:42:47;;;;;;;6.25;1.90;;;;;;;27.54;34.19;100491.20;1764382;81;21048;-69
2022/07/03 05:45:14;;;;;;;7.42;2.00;;;;;;;27.63;32.99;100491.61;1764324;81;21056;-69
2022/07/03 05:47:40;;;;;;;5.58;1.90;;;;;;;27.66;33.92;100485.03;1764614;81;21084;-69
2022/07/03 05:50:09;;;;;;;4.58;2.17;;;;;;;27.72;32.02;100492.01;1762708;81;21053;-70
2022/07/03 05:52:35;;;;;;;5.33;2.08;;;;;;;27.95;33.32;100496.89;1757085;81;21124;-68
2022/07/03 05:55:04;;;;;;;5.85;2.27;;;;;;;28.23;32.05;100488.08;1751960;81;21092;-68
2022/07/03 05:57:31;;;;;;;5.30;2.25;;;;;;;28.41;32.73;100487.95;1751895;81;21054;-68
2022/07/03 05:59:57;;;;;;;5.42;2.27;;;;;;;28.70;32.01;100483.51;1751528;81;21552;-69
2022/07/03 06:02:24;;;;;;;7.08;2.17;;;;;;;28.97;31.34;100482.38;1734009;82;21091;-69
2022/07/03 06:04:51;;;;;;;7.53;2.20;;;;;;;29.20;32.56;100476.31;1734789;82;21356;-68
2022/07/03 06:07:17;;;;;;;7.53;1.98;;;;;;;29.37;29.36;100476.63;1734037;82;21057;-68
2022/07/03 06:09:44;;;;;;;5.90;2.10;;;;;;;29.29;29.39;100480.72;1734081;82;21548;-68
2022/07/03 06:12:11;;;;;;;5.90;2.05;;;;;;;29.06;30.16;100478.65;1733991;82;21060;-69
2022/07/03 06:14:37;;;;;;;3.00;2.50;;;;;;;29.03;29.35;100475.41;1734374;82;21057;-68
2022/07/03 06:17:04;;;;;;;6.50;2.70;;;;;;;29.01;28.39;100483.73;1733980;82;21494;-68
2022/07/03 06:19:31;;;;;;;12.35;2.70;;;;;;;28.84;28.61;100496.91;1734211;82;21053;-69
2022/07/03 06:21:58;;;;;;;9.28;2.50;;;;;;;28.60;30.04;100486.88;1734223;82;21021;-69
2022/07/03 06:24:24;;;;;;;6.20;2.62;;;;;;;28.55;30.19;100486.02;1734056;82;21065;-68
2022/07/03 06:26:51;;;;;;;5.72;2.33;;;;;;;28.55;29.58;100483.31;1734155;82;21024;-68
2022/07/03 06:29:18;;;;;;;7.25;2.90;;;;;;;28.46;30.06;100482.91;1723803;82;21168;-69
2022/07/03 06:31:45;;;;;;;4.67;2.72;;;;;;;28.39;30.50;100480.50;1722270;83;21002;-69
2022/07/03 06:34:11;;;;;;;9.70;3.20;;;;;;;28.29;30.49;100477.09;1722476;82;21129;-69
2022/07/03 06:36:38;;;;;;;7.22;3.22;;;;;;;28.31;30.55;100472.36;1722554;83;21049;-69
2022/07/03 06:39:04;;;;;;;4.03;2.80;;;;;;;28.25;29.93;100477.91;1722580;83;21559;-69
2022/07/03 06:41:31;;;;;;;8.33;2.90;;;;;;;28.34;30.24;100474.73;1722069;83;21118;-69
2022/07/03 06:43:58;;;;;;;9.15;2.45;;;;;;;28.60;30.39;100476.89;1715564;83;21124;-68
2022/07/03 06:46:24;;;;;;;7.53;2.70;;;;;;;28.77;29.72;100470.14;1713845;83;21564;-69
2022/07/03 06:48:51;;;;;;;6.75;2.98;;;;;;;29.00;30.70;100469.83;1726485;83;21112;-70
2022/07/03 06:51:17;;;;;;;5.60;2.55;;;;;;;29.33;29.25;100468.48;1713071;83;21072;-69
2022/07/03 06:53:44;;;;;;;3.35;2.60;;;;;;;29.58;30.02;100467.11;1708668;83;21483;-68
2022/07/03 06:56:11;;;;;;;6.97;2.72;;;;;;;29.96;29.67;100463.33;1721599;83;21200;-69
2022/07/03 06:58:37;;;;;;;5.55;2.52;;;;;;;30.17;28.34;100458.14;1719907;83;21580;-69
2022/07/03 07:01:03;;;;;;;5.37;2.33;;;;;;;30.23;28.73;100462.02;1713206;83;21565;-69
2022/07/03 07:03:30;;;;;;;5.87;2.42;;;;;;;30.35;28.56;100455.73;1700298;83;21081;-68
2022/07/03 07:05:57;;;;;;;7.95;2.50;;;;;;;30.63;27.71;100466.95;1700454;84;21101;-68
2022/07/03 07:08:24;;;;;;;5.60;2.72;;;;;;;30.74;26.50;100459.22;1700396;83;21132;-69
2022/07/03 07:10:51;;;;;;;7.50;2.58;;;;;;;30.74;26.50;100459.22;1722765;83;21037;-69
2022/07/03 07:13:18;;;;;;;5.53;2.87;;;;;;;30.72;26.94;100458.55;1728906;83;21049;-68
2022/07/03 07:15:44;;;;;;;3.65;2.45;;;;;;;30.80;28.21;100450.00;1717012;83;21048;-69
2022/07/03 07:18:11;;;;;;;5.12;2.90;;;;;;;30.95;27.23;100452.30;1729222;83;21139;-69
2022/07/03 07:20:40;;;;;;;5.72;2.65;;;;;;;31.00;27.01;100450.40;1729082;83;21097;-72
2022/07/03 07:23:07;;;;;;;5.47;2.60;;;;;;;31.08;26.58;100453.03;1729302;83;21581;-69
2022/07/03 07:25:34;;;;;;;6.70;3.00;;;;;;;31.00;27.08;100451.23;1728984;83;21636;-70
2022/07/03 07:28:00;;;;;;;7.55;3.10;;;;;;;30.87;27.70;100453.72;1733997;81;21097;-69
2022/07/03 07:30:27;;;;;;;4.67;3.15;;;;;;;30.69;28.04;100446.69;1754268;81;21942;-69
2022/07/03 07:32:54;;;;;;;6.30;2.80;;;;;;;30.68;28.64;100450.41;1737656;82;21117;-68
2022/07/03 07:35:21;;;;;;;9.43;3.25;;;;;;;30.77;28.51;100442.22;1737764;82;21074;-68
2022/07/03 07:37:48;;;;;;;5.33;2.77;;;;;;;30.76;28.05;100450.02;1742538;81;21038;-68
2022/07/03 07:40:14;;;;;;;3.67;2.80;;;;;;;30.79;28.41;100446.44;1717614;82;21070;-68
2022/07/03 07:42:42;;;;;;;6.62;3.00;;;;;;;30.96;27.63;100447.19;1725070;82;21095;-69
2022/07/03 07:45:11;;;;;;;11.30;3.52;;;;;;;30.89;27.62;100441.63;1730510;82;21108;-69
2022/07/03 07:47:37;;;;;;;7.10;4.40;;;;;;;30.89;27.62;100441.63;1709981;82;21064;-69
2022/07/03 07:50:05;;;;;;;6.05;3.00;;;;;;;31.20;27.14;100439.84;1729606;82;21040;-70
2022/07/03 07:52:32;;;;;;;5.90;3.10;;;;;;;31.39;27.09;100447.50;1711264;82;21736;-69
2022/07/03 07:54:59;;;;;;;7.35;3.08;;;;;;;31.43;27.41;100442.05;1723017;82;21120;-69
2022/07/03 07:57:27;;;;;;;6.33;2.60;;;;;;;31.49;27.25;100439.09;1728674;82;21588;-69
2022/07/03 07:59:53;;;;;;;7.70;2.80;;;;;;;31.67;27.43;100444.19;1683182;83;21151;-70
2022/07/03 08:07:52;;;;;;;6.12;3.40;;;;;;;31.63;26.97;100442.34;1733440;82;22177;-70
2022/07/03 08:10:19;;;;;;;7.92;2.65;;;;;;;31.56;26.80;100435.95;1767736;80;21056;-68
2022/07/03 08:12:45;;;;;;;6.62;3.15;;;;;;;31.51;26.63;100437.88;1733582;82;21205;-69
2022/07/03 08:15:13;;;;;;;5.70;2.98;;;;;;;31.60;26.97;100437.80;1740750;82;21111;-69
2022/07/03 08:17:40;;;;;;;3.65;2.55;;;;;;;31.74;26.81;100438.31;1734986;82;21132;-70
2022/07/03 08:20:08;;;;;;;3.72;2.83;;;;;;;31.72;26.80;100445.82;1732996;82;21793;-69
2022/07/03 08:22:35;;;;;;;4.35;3.05;;;;;;;31.69;26.52;100454.37;1731540;82;21596;-69
2022/07/03 08:25:03;;;;;;;4.00;2.75;;;;;;;31.76;27.01;100442.53;1733398;82;21037;-69
2022/07/03 08:27:30;;;;;;;5.03;3.00;;;;;;;32.29;26.09;100443.78;1746174;82;21047;-70
2022/07/03 08:29:56;;;;;;;4.80;2.58;;;;;;;32.96;25.73;100442.64;1732860;80;21053;-68
2022/07/03 08:32:23;;;;;;;8.90;3.05;;;;;;;33.59;25.80;100445.52;1720097;83;21147;-69
2022/07/03 08:34:50;;;;;;;8.35;2.87;;;;;;;33.96;24.43;100443.92;1701334;83;21113;-69
2022/07/03 08:37:16;;;;;;;2.92;2.62;;;;;;;33.88;24.97;100438.13;1740724;82;21081;-69
2022/07/03 08:39:43;;;;;;;5.30;2.60;;;;;;;33.79;25.05;100439.33;1718249;83;21079;-69
2022/07/03 08:42:55;;;;;;;8.38;2.70;;;;;;;34.10;24.36;100442.16;1796459;79;22644;-68
2022/07/03 08:45:23;;;;;;;5.72;2.90;;;;;;;34.35;24.18;100441.95;1756268;81;20997;-68
2022/07/03 08:47:55;;;;;;;6.65;2.80;;;;;;;34.08;24.78;100434.66;1756197;81;21814;-68
2022/07/03 08:50:21;;;;;;;5.58;2.85;;;;;;;33.63;24.36;100437.77;1756866;81;21031;-67
2022/07/03 08:52:48;;;;;;;4.50;2.77;;;;;;;33.27;25.30;100443.34;1755636;81;21052;-68
2022/07/03 08:55:16;;;;;;;6.33;3.05;;;;;;;32.89;25.27;100443.63;1753212;81;21018;-69
2022/07/03 08:57:44;;;;;;;4.20;3.40;;;;;;;32.55;25.76;100442.43;1755250;81;21534;-67
2022/07/03 09:00:15;;;;;;;5.65;2.90;;;;;;;32.46;26.15;100443.55;1753040;81;21533;-69
2022/07/03 09:02:45;;;;;;;5.00;2.85;;;;;;;32.62;25.85;100435.16;1755442;81;21074;-68
2022/07/03 09:05:12;;;;;;;5.78;3.08;;;;;;;33.19;25.72;100437.52;1758168;80;21088;-68
2022/07/03 09:07:42;;;;;;;3.83;3.27;;;;;;;33.44;25.49;100432.47;1765442;80;21111;-68
2022/07/03 09:10:11;;;;;;;6.97;2.73;;;;;;;33.57;25.25;100424.40;1749387;81;21088;-69
2022/07/03 09:12:38;;;;;;;6.22;2.70;;;;;;;33.70;25.64;100432.34;1693212;84;21096;-68
2022/07/03 09:15:07;;;;;;;4.92;3.00;;;;;;;33.90;25.31;100427.84;1665293;84;21036;-67
2022/07/03 09:17:34;;;;;;;6.00;3.00;;;;;;;34.09;24.90;100425.40;1689882;84;21608;-70
2022/07/03 09:20:04;;;;;;;5.42;3.30;;;;;;;34.36;24.75;100428.58;1679611;84;21081;-70
2022/07/03 09:22:36;;;;;;;6.00;2.90;;;;;;;34.75;24.70;100425.66;1690091;84;21113;-68
2022/07/03 09:25:08;;;;;;;5.10;3.10;;;;;;;35.18;24.00;100418.95;1690027;84;21102;-68
2022/07/03 09:27:37;;;;;;;6.72;3.00;;;;;;;35.32;23.31;100422.52;1689634;84;21054;-67
2022/07/03 09:30:09;;;;;;;7.28;3.20;;;;;;;35.37;23.02;100420.02;1688157;84;21538;-67
2022/07/03 09:32:45;;;;;;;11.70;2.98;;;;;;;35.46;23.33;100418.73;1690027;84;21009;-70
2022/07/03 09:35:23;;;;;;;3.50;2.45;;;;;;;35.79;22.95;100415.09;1690128;84;21080;-68
2022/07/03 09:37:54;;;;;;;7.03;3.12;;;;;;;35.82;22.64;100417.40;1691174;84;21148;-69
2022/07/03 09:40:22;;;;;;;6.12;3.08;;;;;;;35.34;22.98;100425.39;1690518;84;21097;-70
2022/07/03 09:43:01;;;;;;;7.85;3.22;;;;;;;35.03;23.59;100420.52;1682046;84;21121;-68
2022/07/03 09:45:30;;;;;;;5.80;3.60;;;;;;;34.91;23.65;100416.73;1678090;85;21105;-67
2022/07/03 09:47:57;;;;;;;4.35;3.05;;;;;;;34.74;24.14;100415.78;1655750;85;21085;-68
2022/07/03 09:50:24;;;;;;;5.72;3.47;;;;;;;34.36;24.01;100416.28;1680954;84;21126;-69
2022/07/03 09:52:50;;;;;;;4.78;3.30;;;;;;;33.88;24.46;100413.53;1680460;85;21042;-70
2022/07/03 09:55:18;;;;;;;8.15;3.25;;;;;;;33.37;24.77;100414.67;1682100;85;21044;-70
2022/07/03 09:57:57;;;;;;;5.90;2.98;;;;;;;33.14;25.66;100410.83;1681879;85;21119;-69
2022/07/03 10:00:29;;;;;;;6.10;3.35;;;;;;;33.23;25.26;100412.37;1681966;85;21088;-68
2022/07/03 10:03:00;;;;;;;6.53;3.08;;;;;;;33.23;25.30;100405.55;1681310;85;21799;-69
2022/07/03 10:05:31;;;;;;;7.42;3.10;;;;;;;33.42;24.70;100411.34;1682057;85;21052;-68
2022/07/03 10:08:08;;;;;;;10.78;3.20;;;;;;;33.47;23.80;100407.48;1681667;83;21148;-67
2022/07/03 10:10:39;;;;;;;5.58;2.72;;;;;;;33.56;23.64;100409.55;1680884;83;21048;-68
2022/07/03 10:13:05;;;;;;;8.33;3.33;;;;;;;33.77;23.78;100410.01;1716778;82;21625;-70
2022/07/03 10:15:37;;;;;;;8.80;3.35;;;;;;;34.08;24.18;100405.97;1716980;83;21701;-69
2022/07/03 10:18:09;;;;;;;5.53;3.08;;;;;;;34.29;23.84;100405.02;1716747;83;21316;-69
2022/07/03 10:20:45;;;;;;;3.37;3.08;;;;;;;34.65;24.47;100400.61;1718355;82;21102;-68
2022/07/03 10:23:12;;;;;;;4.35;2.58;;;;;;;35.05;22.54;100399.26;1717340;82;21125;-69
2022/07/03 10:25:43;;;;;;;7.53;3.55;;;;;;;35.30;22.76;100395.38;1717175;83;21065;-69
2022/07/03 10:28:12;;;;;;;5.03;2.70;;;;;;;35.74;22.34;100393.00;1680625;85;21123;-70
2022/07/03 10:30:39;;;;;;;4.53;2.75;;;;;;;35.92;21.23;100398.62;1680101;84;21038;-68
2022/07/03 10:33:05;;;;;;;4.53;2.90;;;;;;;35.83;21.52;100399.92;1680085;85;21064;-69
2022/07/03 10:35:39;;;;;;;5.45;2.95;;;;;;;35.84;22.57;100390.63;1680305;85;21700;-68
2022/07/03 10:38:30;;;;;;;4.67;2.75;;;;;;;36.25;22.05;100392.16;1718416;82;21061;-69
2022/07/03 10:46:54;;;;;;;7.87;2.60;;;;;;;36.36;20.61;100387.36;1699286;83;21049;-68
2022/07/03 10:49:22;;;;;;;6.53;3.00;;;;;;;35.97;21.33;100386.47;1714522;83;21061;-68
2022/07/03 10:52:00;;;;;;;3.83;2.90;;;;;;;35.85;21.46;100386.84;1714937;83;21127;-69
2022/07/03 10:54:36;;;;;;;6.70;2.87;;;;;;;35.54;20.42;100388.37;1718166;83;21518;-69
2022/07/03 10:57:09;;;;;;;4.67;2.85;;;;;;;35.02;21.87;100388.21;1681220;85;21559;-68
2022/07/03 10:59:43;;;;;;;4.53;2.87;;;;;;;34.57;21.77;100398.03;1681035;85;21513;-69
2022/07/03 11:02:36;;;;;;;5.33;2.90;;;;;;;34.12;21.87;100394.95;1699402;83;21006;-70
2022/07/03 11:05:09;;;;;;;3.08;2.60;;;;;;;33.60;22.84;100394.48;1718143;83;21132;-68
2022/07/03 11:07:54;;;;;;;3.15;2.80;;;;;;;32.98;23.00;100394.19;1656951;85;21128;-71
2022/07/03 11:10:30;;;;;;;4.42;2.90;;;;;;;32.66;23.63;100390.13;1717203;83;21335;-69
2022/07/03 11:13:15;;;;;;;6.40;3.20;;;;;;;32.60;24.11;100388.16;1713489;83;21013;-69
2022/07/03 11:15:53;;;;;;;6.08;2.75;;;;;;;32.59;24.51;100386.48;1698829;82;21039;-69
2022/07/03 11:18:32;;;;;;;5.20;3.12;;;;;;;32.48;24.99;100386.97;1717414;83;21526;-68
2022/07/03 11:21:18;;;;;;;12.83;2.70;;;;;;;32.15;25.03;100382.00;1711418;83;21263;-68
2022/07/03 11:24:21;;;;;;;6.92;3.22;;;;;;;31.90;25.44;100385.02;1717919;83;20990;-70
2022/07/03 11:27:14;;;;;;;5.10;2.90;;;;;;;31.82;26.08;100382.41;1717845;83;21069;-68
2022/07/03 11:29:40;;;;;;;6.28;2.90;;;;;;;31.59;26.66;100381.16;1716337;83;21045;-69
2022/07/03 11:32:32;;;;;;;4.65;3.58;;;;;;;31.32;26.67;100375.81;1702186;83;21162;-68
2022/07/03 11:34:59;;;;;;;6.60;3.80;;;;;;;31.09;26.68;100371.79;1711174;82;21077;-70
2022/07/03 11:37:25;;;;;;;6.15;3.30;;;;;;;31.04;27.36;100373.70;1681196;85;21108;-68
2022/07/03 11:39:52;;;;;;;8.53;3.17;;;;;;;30.96;27.62;100371.05;1718923;82;21054;-68
2022/07/03 11:42:19;;;;;;;4.15;3.12;;;;;;;30.84;27.41;100375.21;1715696;83;21089;-68
2022/07/03 11:44:45;;;;;;;6.70;3.22;;;;;;;30.66;28.12;100365.48;1712962;82;21175;-68
2022/07/03 11:47:12;;;;;;;8.55;3.25;;;;;;;30.57;28.02;100367.94;1634761;85;21563;-68
2022/07/03 11:49:43;;;;;;;7.22;3.95;;;;;;;30.55;28.23;100365.91;1712094;83;21058;-68
2022/07/03 11:52:10;;;;;;;18.40;10.35;;;;;;;30.28;28.91;100360.52;1699125;83;21041;-68